createdAt,value
2018-04-22T17:44:41.180Z,22.41
2018-04-22T17:45:41.185Z,22.23
2018-04-22T17:47:34.029Z,22.11
2018-04-22T17:48:34.021Z,22.09
2018-04-22T17:53:59.097Z,21.96
2018-04-22T17:54:59.434Z,21.89
2018-04-22T17:56:53.049Z,21.94
2018-04-22T17:57:52.943Z,21.89
2018-04-22T17:59:47.412Z,21.85
2018-04-22T18:00:50.109Z,21.81
2018-04-22T18:02:41.699Z,21.83
2018-04-22T18:03:41.686Z,21.82
2018-04-22T18:05:37.714Z,21.68
2018-04-22T18:06:37.748Z,21.85
2018-04-22T18:08:32.119Z,21.66
2018-04-22T18:09:32.173Z,21.71
2018-04-22T18:11:26.782Z,21.79
2018-04-22T18:12:27.968Z,21.81
2018-04-22T18:14:21.359Z,21.89
2018-04-22T18:15:21.277Z,21.94
2018-04-22T18:17:15.826Z,21.81
2018-04-22T18:18:15.721Z,21.73
2018-04-22T18:20:11.479Z,21.66
2018-04-22T18:21:11.401Z,21.74
2018-04-22T18:23:06.597Z,21.70
2018-04-22T18:24:05.774Z,21.77
2018-04-22T18:26:00.666Z,21.81
2018-04-22T18:27:00.691Z,21.67
2018-04-22T18:28:55.749Z,21.64
2018-04-22T18:29:55.346Z,21.70
2018-04-22T18:31:51.077Z,21.70
2018-04-22T18:32:50.651Z,21.67
2018-04-22T18:34:45.295Z,21.68
2018-04-22T18:35:45.222Z,21.49
2018-04-22T18:37:38.623Z,21.42
2018-04-22T18:38:39.190Z,21.40
2018-04-22T18:40:33.068Z,21.58
2018-04-22T18:41:33.074Z,21.42
2018-04-22T18:43:28.945Z,21.40
2018-04-22T18:44:28.954Z,21.48
2018-04-22T18:46:21.960Z,21.46
2018-04-22T18:47:21.865Z,21.28
2018-04-22T18:49:15.259Z,21.15
2018-04-22T18:50:15.264Z,20.96
2018-04-22T18:52:08.966Z,20.51
2018-04-22T18:53:08.969Z,20.13
2018-04-22T18:55:01.882Z,20.17
2018-04-22T18:56:01.905Z,19.87
2018-04-22T18:57:57.385Z,19.65
2018-04-22T18:58:56.827Z,19.71
2018-04-22T19:00:49.745Z,19.47
2018-04-22T19:01:49.931Z,19.60
2018-04-22T19:03:42.710Z,19.60
